createdAt,value
2022-10-21T00:03:26.158Z,71.40
2022-10-21T00:08:28.740Z,71.79
2022-10-21T00:13:31.993Z,71.68
2022-10-21T00:18:35.701Z,71.77
2022-10-21T00:23:37.548Z,71.89
2022-10-21T00:28:39.419Z,72.06
2022-10-21T00:33:41.857Z,71.96
2022-10-21T00:38:49.738Z,72.21
2022-10-21T00:44:03.239Z,72.40
2022-10-21T00:49:27.954Z,71.91
2022-10-21T00:54:31.513Z,71.56
2022-10-21T00:59:40.914Z,72.17
2022-10-21T01:04:43.597Z,71.93
2022-10-21T01:09:45.795Z,71.93
2022-10-21T01:15:17.935Z,71.74
2022-10-21T01:20:44.373Z,72.23
2022-10-21T01:26:11.082Z,72.08
2022-10-21T01:31:25.123Z,71.91
2022-10-21T01:36:41.893Z,71.76
2022-10-21T01:42:20.400Z,71.88
2022-10-21T01:47:32.962Z,72.02
2022-10-21T01:52:35.047Z,72.08
2022-10-21T01:57:41.683Z,71.73
2022-10-21T02:02:47.604Z,71.51
2022-10-21T02:07:52.296Z,71.73
2022-10-21T02:12:57.631Z,71.89
2022-10-21T02:18:08.049Z,72.39
2022-10-21T02:23:15.558Z,72.27
2022-10-21T02:28:18.407Z,71.80
2022-10-21T02:33:29.797Z,71.57
2022-10-21T02:38:38.756Z,71.73
2022-10-21T02:43:49.825Z,72.77
2022-10-21T02:48:51.597Z,72.50
2022-10-21T02:53:53.470Z,72.26
2022-10-21T02:58:55.278Z,72.25
2022-10-21T03:03:57.070Z,71.96
2022-10-21T03:08:58.897Z,71.75
2022-10-21T03:14:00.769Z,71.78
2022-10-21T03:19:02.540Z,72.03
2022-10-21T03:24:10.955Z,71.98
2022-10-21T03:29:21.465Z,71.91
2022-10-21T03:34:23.419Z,72.12
2022-10-21T03:39:25.197Z,71.83
2022-10-21T03:44:27.029Z,71.66
2022-10-21T03:49:28.902Z,71.50
2022-10-21T03:54:30.852Z,71.48
2022-10-21T03:59:32.611Z,71.58
2022-10-21T04:04:34.366Z,71.15
2022-10-21T04:09:36.213Z,71.62
2022-10-21T04:14:38.206Z,71.66
2022-10-21T04:19:40.009Z,71.42
2022-10-21T04:24:41.836Z,71.44
2022-10-21T04:29:43.715Z,71.27
2022-10-21T04:34:45.817Z,71.24
2022-10-21T04:39:47.667Z,71.19
2022-10-21T04:44:49.484Z,71.03
2022-10-21T04:49:51.212Z,71.11
2022-10-21T04:54:53.059Z,70.87
2022-10-21T04:59:54.909Z,70.87
2022-10-21T05:04:56.668Z,71.09
2022-10-21T05:09:58.484Z,71.04
2022-10-21T05:15:00.823Z,71.12
2022-10-21T05:20:07.076Z,70.88
2022-10-21T05:25:09.113Z,71.34
2022-10-21T05:30:12.217Z,71.01
2022-10-21T05:35:14.243Z,71.46
2022-10-21T05:40:16.233Z,71.57
2022-10-21T05:45:18.124Z,71.46
2022-10-21T05:50:19.915Z,71.50
2022-10-21T05:55:21.750Z,71.32
2022-10-21T06:00:23.687Z,71.32
2022-10-21T06:05:25.709Z,71.37
2022-10-21T06:10:29.167Z,71.55
2022-10-21T06:15:31.298Z,71.53
2022-10-21T06:20:36.207Z,71.35
2022-10-21T06:25:38.125Z,71.58
2022-10-21T06:30:39.990Z,71.42
2022-10-21T06:35:41.959Z,71.23
2022-10-21T06:40:43.878Z,71.55
2022-10-21T06:45:45.891Z,71.24
2022-10-21T06:50:47.705Z,71.43
2022-10-21T06:55:49.498Z,71.10
2022-10-21T07:00:51.477Z,71.29
2022-10-21T07:05:59.957Z,71.00
2022-10-21T07:11:02.384Z,71.15
2022-10-21T07:16:14.057Z,71.14
2022-10-21T07:21:18.954Z,70.97
2022-10-21T07:26:22.495Z,71.10
2022-10-21T07:31:24.515Z,71.35
2022-10-21T07:36:29.005Z,71.23
2022-10-21T07:41:40.765Z,71.13
2022-10-21T07:46:43.863Z,71.11
2022-10-21T07:51:46.113Z,71.19
2022-10-21T07:56:50.345Z,70.77
2022-10-21T08:01:53.458Z,70.99
2022-10-21T08:06:56.517Z,71.07
2022-10-21T08:11:59.128Z,71.04
2022-10-21T08:17:01.062Z,70.93
2022-10-21T08:22:03.209Z,70.92
2022-10-21T08:27:06.180Z,70.70
2022-10-21T08:32:08.091Z,70.99
2022-10-21T08:37:09.938Z,71.12
2022-10-21T08:42:15.348Z,71.03
2022-10-21T08:47:27.930Z,71.54
2022-10-21T08:52:44.067Z,70.94
2022-10-21T08:57:48.092Z,71.31
2022-10-21T09:03:16.372Z,70.86
2022-10-21T09:08:40.800Z,70.76
2022-10-21T09:14:00.261Z,71.03
2022-10-21T09:19:24.671Z,70.66
2022-10-21T09:24:52.870Z,70.70
2022-10-21T09:30:02.712Z,70.60
2022-10-21T09:35:33.529Z,70.63
2022-10-21T09:40:35.523Z,70.57
2022-10-21T09:45:43.790Z,70.50
2022-10-21T09:50:48.713Z,70.68
2022-10-21T09:55:56.398Z,70.64
2022-10-21T10:00:59.125Z,70.81
2022-10-21T10:06:03.431Z,70.67
2022-10-21T10:11:14.704Z,70.60
2022-10-21T10:16:33.956Z,70.84
2022-10-21T10:21:36.522Z,70.87
2022-10-21T10:26:41.324Z,71.05
2022-10-21T10:31:54.084Z,71.22
2022-10-21T10:37:26.207Z,71.13
2022-10-21T10:42:37.739Z,71.55
2022-10-21T10:47:48.995Z,71.26
2022-10-21T10:53:22.665Z,70.73
2022-10-21T10:58:28.604Z,70.33
2022-10-21T11:03:41.231Z,70.29
2022-10-21T11:08:51.242Z,70.02
2022-10-21T11:13:54.031Z,69.42
2022-10-21T11:19:08.955Z,68.96
2022-10-21T11:24:51.089Z,69.48
2022-10-21T11:30:10.948Z,69.87
2022-10-21T11:35:37.617Z,69.16
2022-10-21T11:40:49.545Z,68.59
2022-10-21T11:45:54.475Z,68.35
2022-10-21T11:50:56.265Z,67.88
2022-10-21T11:55:58.205Z,67.16
2022-10-21T12:01:23.989Z,66.47
2022-10-21T12:06:34.676Z,65.68
2022-10-21T12:12:05.835Z,63.83
2022-10-21T12:17:14.125Z,64.33
2022-10-21T12:22:16.242Z,64.73
2022-10-21T12:27:40.318Z,62.47
2022-10-21T12:32:51.109Z,63.49
2022-10-21T12:37:52.896Z,63.25
2022-10-21T12:43:01.604Z,63.55
2022-10-21T12:48:22.486Z,63.58
2022-10-21T12:53:49.457Z,63.46
2022-10-21T12:58:59.316Z,61.72
2022-10-21T13:04:01.537Z,63.46
2022-10-21T13:09:03.576Z,64.02
2022-10-21T13:14:17.637Z,63.35
2022-10-21T13:19:19.544Z,63.82
2022-10-21T13:24:31.305Z,64.13
2022-10-21T13:29:48.758Z,64.02
2022-10-21T13:35:11.777Z,64.87
2022-10-21T13:40:19.698Z,64.53
2022-10-21T13:45:30.801Z,63.87
2022-10-21T13:50:38.678Z,64.06
2022-10-21T13:55:40.456Z,64.11
2022-10-21T14:00:42.677Z,64.22
2022-10-21T14:05:52.738Z,64.71
2022-10-21T14:10:59.459Z,65.20
2022-10-21T14:16:01.942Z,65.61
2022-10-21T14:21:05.359Z,64.77
2022-10-21T14:26:08.868Z,65.35
2022-10-21T14:31:13.919Z,65.23
2022-10-21T14:36:19.920Z,64.70
2022-10-21T14:41:38.222Z,64.94
2022-10-21T14:46:43.060Z,65.23
2022-10-21T14:51:45.136Z,64.78
2022-10-21T14:56:47.316Z,66.13
2022-10-21T15:01:49.633Z,66.94
2022-10-21T15:07:01.898Z,67.15
2022-10-21T15:12:18.777Z,66.81
2022-10-21T15:17:22.724Z,66.97
2022-10-21T15:22:29.368Z,67.46
2022-10-21T15:27:40.128Z,67.51
2022-10-21T15:32:43.747Z,68.00
2022-10-21T15:37:53.237Z,68.35
2022-10-21T15:42:56.861Z,68.18
2022-10-21T15:47:58.729Z,68.62
2022-10-21T15:53:03.446Z,69.14
2022-10-21T15:58:07.961Z,69.82
2022-10-21T16:03:10.475Z,69.74
2022-10-21T16:08:12.799Z,70.24
2022-10-21T16:13:15.206Z,70.06
2022-10-21T16:18:17.260Z,69.58
2022-10-21T16:23:19.122Z,69.94
2022-10-21T16:28:21.108Z,70.54
2022-10-21T16:33:25.859Z,70.59
2022-10-21T16:38:27.763Z,70.71
2022-10-21T16:43:29.616Z,70.71
2022-10-21T16:48:31.766Z,70.79
2022-10-21T16:53:33.791Z,71.57
2022-10-21T16:58:36.047Z,71.29
2022-10-21T17:03:38.114Z,71.43
2022-10-21T17:08:39.971Z,71.12
2022-10-21T17:13:43.486Z,71.68
2022-10-21T17:18:45.464Z,71.75
2022-10-21T17:23:51.717Z,72.13
2022-10-21T17:28:54.108Z,71.93
2022-10-21T17:34:07.543Z,72.28
2022-10-21T17:39:09.437Z,72.14
2022-10-21T17:44:14.426Z,72.47
2022-10-21T17:49:16.286Z,72.31
2022-10-21T17:54:22.874Z,72.10
2022-10-21T17:59:28.576Z,72.52
2022-10-21T18:04:31.852Z,72.44
2022-10-21T18:14:41.084Z,72.60
2022-10-21T18:19:42.927Z,72.36
2022-10-21T18:24:45.175Z,72.45
2022-10-21T18:29:47.196Z,72.62
2022-10-21T18:34:49.299Z,72.40
2022-10-21T18:39:56.801Z,72.73
2022-10-21T18:45:00.874Z,72.58
2022-10-21T18:50:02.776Z,72.21
2022-10-21T19:00:12.005Z,72.21
2022-10-21T19:05:13.914Z,72.43
2022-10-21T19:10:15.908Z,72.27
2022-10-21T19:15:18.641Z,72.22
2022-10-21T19:20:20.523Z,72.05
2022-10-21T19:25:22.853Z,71.63
2022-10-21T19:30:24.685Z,71.84
2022-10-21T19:35:27.413Z,71.67
2022-10-21T19:40:29.376Z,71.74
2022-10-21T19:45:31.291Z,71.57
2022-10-21T19:50:33.113Z,72.30
2022-10-21T19:55:35.045Z,72.19
2022-10-21T20:00:37.182Z,72.41
2022-10-21T20:05:42.725Z,73.02
2022-10-21T20:10:45.739Z,72.97
2022-10-21T20:15:48.109Z,72.85
2022-10-21T20:20:50.020Z,72.46
2022-10-21T20:25:59.302Z,72.09
2022-10-21T20:31:04.351Z,72.05
2022-10-21T20:36:10.102Z,72.34
2022-10-21T20:41:14.996Z,71.82
2022-10-21T20:46:18.203Z,72.24
2022-10-21T20:51:26.095Z,72.07
2022-10-21T20:56:30.081Z,72.23
2022-10-21T21:01:35.236Z,72.33
2022-10-21T21:06:42.975Z,72.39
2022-10-21T21:11:45.522Z,72.52
2022-10-21T21:16:47.382Z,72.87
2022-10-21T21:21:49.263Z,72.78
2022-10-21T21:26:51.223Z,72.66
2022-10-21T21:31:53.152Z,72.80
2022-10-21T21:36:54.973Z,72.65
2022-10-21T21:41:56.812Z,72.73
2022-10-21T21:46:58.666Z,72.60
2022-10-21T21:52:00.580Z,72.29
2022-10-21T21:57:29.741Z,72.11
2022-10-21T22:02:24.547Z,72.08
2022-10-21T22:07:26.741Z,72.10
2022-10-21T22:12:28.811Z,72.20
2022-10-21T22:17:30.655Z,71.91
2022-10-21T22:22:34.660Z,71.89
2022-10-21T22:27:37.435Z,72.27
2022-10-21T22:32:39.567Z,72.02
2022-10-21T22:37:41.591Z,71.82
2022-10-21T22:47:46.448Z,72.22
2022-10-21T22:52:48.287Z,71.90
2022-10-21T22:57:50.157Z,71.99
2022-10-21T23:02:51.945Z,71.83
2022-10-21T23:07:53.707Z,72.11
2022-10-21T23:12:55.576Z,71.67
2022-10-21T23:17:58.466Z,71.91
2022-10-21T23:23:00.354Z,71.73
2022-10-21T23:28:02.156Z,71.45
2022-10-21T23:33:03.998Z,71.47
2022-10-21T23:38:05.871Z,71.59
2022-10-21T23:43:07.687Z,71.64
2022-10-21T23:48:09.492Z,71.61
2022-10-21T23:53:11.287Z,71.33
2022-10-21T23:58:13.064Z,71.77
